sensor_id;sensor_type;location;lat;lon;timestamp;temperature;humidity
68480;DHT22;55469;48.934;12.050;2023-02-28T00:01:26;1.20;94.20
68480;DHT22;55469;48.934;12.050;2023-02-28T00:03:52;1.20;94.20
68480;DHT22;55469;48.934;12.050;2023-02-28T00:06:18;1.10;94.10
68480;DHT22;55469;48.934;12.050;2023-02-28T00:08:45;1.10;94.20
68480;DHT22;55469;48.934;12.050;2023-02-28T00:11:12;1.10;94.10
68480;DHT22;55469;48.934;12.050;2023-02-28T00:13:42;1.10;94.30
68480;DHT22;55469;48.934;12.050;2023-02-28T00:16:14;1.10;94.30
68480;DHT22;55469;48.934;12.050;2023-02-28T00:18:45;1.10;94.20
68480;DHT22;55469;48.934;12.050;2023-02-28T00:21:12;1.10;94.20
68480;DHT22;55469;48.934;12.050;2023-02-28T00:23:38;1.10;94.10
68480;DHT22;55469;48.934;12.050;2023-02-28T00:26:04;1.10;94.20
68480;DHT22;55469;48.934;12.050;2023-02-28T00:28:30;1.10;94.30
68480;DHT22;55469;48.934;12.050;2023-02-28T00:30:56;1.00;94.20
68480;DHT22;55469;48.934;12.050;2023-02-28T00:33:22;1.10;94.20
68480;DHT22;55469;48.934;12.050;2023-02-28T00:35:48;1.00;94.20
68480;DHT22;55469;48.934;12.050;2023-02-28T00:38:15;1.00;94.30
68480;DHT22;55469;48.934;12.050;2023-02-28T00:40:41;1.00;94.20
68480;DHT22;55469;48.934;12.050;2023-02-28T00:43:07;1.00;94.30
68480;DHT22;55469;48.934;12.050;2023-02-28T00:45:33;1.00;94.30
68480;DHT22;55469;48.934;12.050;2023-02-28T00:47:58;1.00;94.20
68480;DHT22;55469;48.934;12.050;2023-02-28T00:50:24;1.00;94.20
68480;DHT22;55469;48.934;12.050;2023-02-28T00:52:50;1.00;94.30
68480;DHT22;55469;48.934;12.050;2023-02-28T00:55:16;1.00;94.30
68480;DHT22;55469;48.934;12.050;2023-02-28T00:57:41;0.90;94.20
68480;DHT22;55469;48.934;12.050;2023-02-28T01:00:08;0.90;94.30
68480;DHT22;55469;48.934;12.050;2023-02-28T01:02:34;0.90;94.30
68480;DHT22;55469;48.934;12.050;2023-02-28T01:05:00;0.90;94.40
68480;DHT22;55469;48.934;12.050;2023-02-28T01:07:25;0.90;94.30
68480;DHT22;55469;48.934;12.050;2023-02-28T01:09:51;0.90;94.30
68480;DHT22;55469;48.934;12.050;2023-02-28T01:12:17;0.90;94.40
68480;DHT22;55469;48.934;12.050;2023-02-28T01:14:42;0.80;94.40
68480;DHT22;55469;48.934;12.050;2023-02-28T01:17:08;0.90;94.40
68480;DHT22;55469;48.934;12.050;2023-02-28T01:19:34;0.80;94.30
68480;DHT22;55469;48.934;12.050;2023-02-28T01:22:05;0.80;94.50
68480;DHT22;55469;48.934;12.050;2023-02-28T01:24:32;0.80;94.40
68480;DHT22;55469;48.934;12.050;2023-02-28T01:26:58;0.80;94.20
68480;DHT22;55469;48.934;12.050;2023-02-28T01:29:24;0.80;94.30
68480;DHT22;55469;48.934;12.050;2023-02-28T01:31:50;0.80;94.30
68480;DHT22;55469;48.934;12.050;2023-02-28T01:34:15;0.80;94.40
68480;DHT22;55469;48.934;12.050;2023-02-28T01:36:41;0.80;94.40
68480;DHT22;55469;48.934;12.050;2023-02-28T01:39:07;0.80;94.40
68480;DHT22;55469;48.934;12.050;2023-02-28T01:41:34;0.70;94.30
68480;DHT22;55469;48.934;12.050;2023-02-28T01:44:04;0.70;94.40
68480;DHT22;55469;48.934;12.050;2023-02-28T01:46:49;0.70;94.40
68480;DHT22;55469;48.934;12.050;2023-02-28T01:49:16;0.70;94.40
68480;DHT22;55469;48.934;12.050;2023-02-28T01:51:46;0.70;94.50
68480;DHT22;55469;48.934;12.050;2023-02-28T01:54:24;0.70;94.40
68480;DHT22;55469;48.934;12.050;2023-02-28T01:57:04;0.70;94.40
68480;DHT22;55469;48.934;12.050;2023-02-28T02:00:03;0.70;94.30
68480;DHT22;55469;48.934;12.050;2023-02-28T02:02:33;0.70;95.00
68480;DHT22;55469;48.934;12.050;2023-02-28T02:05:04;0.70;94.50
68480;DHT22;55469;48.934;12.050;2023-02-28T02:07:35;0.60;94.50
68480;DHT22;55469;48.934;12.050;2023-02-28T02:12:52;0.60;94.40
68480;DHT22;55469;48.934;12.050;2023-02-28T02:19:51;0.60;94.30
68480;DHT22;55469;48.934;12.050;2023-02-28T02:36:19;0.50;94.30
68480;DHT22;55469;48.934;12.050;2023-02-28T02:39:11;0.50;94.50
68480;DHT22;55469;48.934;12.050;2023-02-28T02:41:54;0.50;94.40
68480;DHT22;55469;48.934;12.050;2023-02-28T02:44:27;0.60;94.40
68480;DHT22;55469;48.934;12.050;2023-02-28T02:47:05;0.50;94.40
68480;DHT22;55469;48.934;12.050;2023-02-28T02:49:36;0.50;94.50
68480;DHT22;55469;48.934;12.050;2023-02-28T02:52:07;0.50;94.40
68480;DHT22;55469;48.934;12.050;2023-02-28T02:54:37;0.50;94.40
68480;DHT22;55469;48.934;12.050;2023-02-28T02:57:10;0.50;94.30
68480;DHT22;55469;48.934;12.050;2023-02-28T02:59:40;0.50;94.40
68480;DHT22;55469;48.934;12.050;2023-02-28T03:02:12;0.50;94.40
68480;DHT22;55469;48.934;12.050;2023-02-28T03:04:48;0.40;94.40
68480;DHT22;55469;48.934;12.050;2023-02-28T03:07:17;0.40;94.50
68480;DHT22;55469;48.934;12.050;2023-02-28T03:09:51;0.40;94.50
68480;DHT22;55469;48.934;12.050;2023-02-28T03:12:18;0.50;94.50
68480;DHT22;55469;48.934;12.050;2023-02-28T03:14:59;0.40;94.40
68480;DHT22;55469;48.934;12.050;2023-02-28T03:17:46;0.40;94.40
68480;DHT22;55469;48.934;12.050;2023-02-28T03:20:45;0.40;94.50
68480;DHT22;55469;48.934;12.050;2023-02-28T03:23:21;0.40;94.60
68480;DHT22;55469;48.934;12.050;2023-02-28T03:26:02;0.40;94.60
68480;DHT22;55469;48.934;12.050;2023-02-28T03:28:49;0.40;94.50
68480;DHT22;55469;48.934;12.050;2023-02-28T03:34:20;0.40;94.60
68480;DHT22;55469;48.934;12.050;2023-02-28T03:36:53;0.40;94.60
68480;DHT22;55469;48.934;12.050;2023-02-28T03:39:28;0.40;94.50
68480;DHT22;55469;48.934;12.050;2023-02-28T03:42:04;0.40;94.60
68480;DHT22;55469;48.934;12.050;2023-02-28T03:44:38;0.40;94.50
68480;DHT22;55469;48.934;12.050;2023-02-28T03:52:49;0.30;94.60
68480;DHT22;55469;48.934;12.050;2023-02-28T03:55:17;0.30;94.60
68480;DHT22;55469;48.934;12.050;2023-02-28T03:58:01;0.30;94.50
68480;DHT22;55469;48.934;12.050;2023-02-28T04:00:35;0.30;94.60
68480;DHT22;55469;48.934;12.050;2023-02-28T04:03:04;0.30;94.60
68480;DHT22;55469;48.934;12.050;2023-02-28T04:05:30;0.30;94.70
68480;DHT22;55469;48.934;12.050;2023-02-28T04:08:14;0.30;94.60
68480;DHT22;55469;48.934;12.050;2023-02-28T04:10:41;0.30;94.60
68480;DHT22;55469;48.934;12.050;2023-02-28T04:13:09;0.30;94.60
68480;DHT22;55469;48.934;12.050;2023-02-28T04:15:34;0.30;94.70
68480;DHT22;55469;48.934;12.050;2023-02-28T04:18:00;0.20;94.50
68480;DHT22;55469;48.934;12.050;2023-02-28T04:20:26;0.20;94.50
68480;DHT22;55469;48.934;12.050;2023-02-28T04:22:51;0.20;94.60
68480;DHT22;55469;48.934;12.050;2023-02-28T04:25:17;0.20;94.60
68480;DHT22;55469;48.934;12.050;2023-02-28T04:27:43;0.20;94.60
68480;DHT22;55469;48.934;12.050;2023-02-28T04:30:10;0.20;94.60
68480;DHT22;55469;48.934;12.050;2023-02-28T04:32:36;0.20;94.60
68480;DHT22;55469;48.934;12.050;2023-02-28T04:35:02;0.20;94.60
68480;DHT22;55469;48.934;12.050;2023-02-28T04:37:28;0.20;94.60
68480;DHT22;55469;48.934;12.050;2023-02-28T04:39:54;0.20;94.60
68480;DHT22;55469;48.934;12.050;2023-02-28T04:42:20;0.20;94.60
68480;DHT22;55469;48.934;12.050;2023-02-28T04:44:46;0.20;94.60
68480;DHT22;55469;48.934;12.050;2023-02-28T04:47:12;0.10;94.60
68480;DHT22;55469;48.934;12.050;2023-02-28T04:49:38;0.10;94.50
68480;DHT22;55469;48.934;12.050;2023-02-28T04:52:04;0.10;95.10
68480;DHT22;55469;48.934;12.050;2023-02-28T04:54:30;0.10;94.50
68480;DHT22;55469;48.934;12.050;2023-02-28T04:56:56;0.10;94.60
68480;DHT22;55469;48.934;12.050;2023-02-28T04:59:22;0.10;94.50
68480;DHT22;55469;48.934;12.050;2023-02-28T05:01:49;0.10;94.60
68480;DHT22;55469;48.934;12.050;2023-02-28T05:04:15;0.10;94.60
68480;DHT22;55469;48.934;12.050;2023-02-28T05:06:40;0.10;94.60
68480;DHT22;55469;48.934;12.050;2023-02-28T05:09:06;0.10;94.60
68480;DHT22;55469;48.934;12.050;2023-02-28T05:11:33;0.10;94.60
68480;DHT22;55469;48.934;12.050;2023-02-28T05:14:05;0.00;94.50
68480;DHT22;55469;48.934;12.050;2023-02-28T05:16:37;0.00;94.50
68480;DHT22;55469;48.934;12.050;2023-02-28T05:19:03;0.00;94.70
68480;DHT22;55469;48.934;12.050;2023-02-28T05:21:41;0.10;94.70
68480;DHT22;55469;48.934;12.050;2023-02-28T05:24:11;0.00;94.60
68480;DHT22;55469;48.934;12.050;2023-02-28T05:26:39;0.10;94.70
68480;DHT22;55469;48.934;12.050;2023-02-28T05:29:07;0.00;94.60
68480;DHT22;55469;48.934;12.050;2023-02-28T05:31:33;0.00;94.70
68480;DHT22;55469;48.934;12.050;2023-02-28T05:33:59;0.10;94.70
68480;DHT22;55469;48.934;12.050;2023-02-28T05:36:25;0.00;94.60
68480;DHT22;55469;48.934;12.050;2023-02-28T05:38:51;0.00;94.70
68480;DHT22;55469;48.934;12.050;2023-02-28T05:41:18;0.00;94.60
68480;DHT22;55469;48.934;12.050;2023-02-28T05:43:45;0.00;94.70
68480;DHT22;55469;48.934;12.050;2023-02-28T05:46:11;0.00;94.70
68480;DHT22;55469;48.934;12.050;2023-02-28T05:48:39;0.00;94.70
68480;DHT22;55469;48.934;12.050;2023-02-28T05:51:07;0.00;94.70
68480;DHT22;55469;48.934;12.050;2023-02-28T05:53:34;0.00;94.60
68480;DHT22;55469;48.934;12.050;2023-02-28T05:56:01;0.00;94.70
68480;DHT22;55469;48.934;12.050;2023-02-28T05:58:27;-0.10;94.60
68480;DHT22;55469;48.934;12.050;2023-02-28T06:00:56;0.00;94.70
68480;DHT22;55469;48.934;12.050;2023-02-28T06:03:23;-0.10;94.70
68480;DHT22;55469;48.934;12.050;2023-02-28T06:05:49;-0.10;94.80
68480;DHT22;55469;48.934;12.050;2023-02-28T06:08:15;-0.10;94.70
68480;DHT22;55469;48.934;12.050;2023-02-28T06:10:41;-0.10;94.70
68480;DHT22;55469;48.934;12.050;2023-02-28T06:13:07;-0.10;94.70
68480;DHT22;55469;48.934;12.050;2023-02-28T06:15:33;-0.10;94.70
68480;DHT22;55469;48.934;12.050;2023-02-28T06:17:59;-0.10;94.70
68480;DHT22;55469;48.934;12.050;2023-02-28T06:20:27;-0.10;94.70
68480;DHT22;55469;48.934;12.050;2023-02-28T06:22:57;-0.10;94.70
68480;DHT22;55469;48.934;12.050;2023-02-28T06:25:24;-0.10;94.70
68480;DHT22;55469;48.934;12.050;2023-02-28T06:27:50;-0.10;94.70
68480;DHT22;55469;48.934;12.050;2023-02-28T06:30:16;-0.10;94.70
68480;DHT22;55469;48.934;12.050;2023-02-28T06:32:42;-0.10;94.70
68480;DHT22;55469;48.934;12.050;2023-02-28T06:35:08;-0.10;94.70
68480;DHT22;55469;48.934;12.050;2023-02-28T06:37:34;-0.10;94.60
68480;DHT22;55469;48.934;12.050;2023-02-28T06:39:59;-0.10;94.60
68480;DHT22;55469;48.934;12.050;2023-02-28T06:42:25;-0.10;94.60
68480;DHT22;55469;48.934;12.050;2023-02-28T06:44:55;-0.10;94.60
68480;DHT22;55469;48.934;12.050;2023-02-28T06:47:21;-0.10;94.60
68480;DHT22;55469;48.934;12.050;2023-02-28T06:49:47;-0.10;94.60
68480;DHT22;55469;48.934;12.050;2023-02-28T06:52:14;-0.10;94.60
68480;DHT22;55469;48.934;12.050;2023-02-28T06:54:40;-0.10;94.60
68480;DHT22;55469;48.934;12.050;2023-02-28T06:57:06;-0.10;94.60
68480;DHT22;55469;48.934;12.050;2023-02-28T06:59:32;-0.10;94.60
68480;DHT22;55469;48.934;12.050;2023-02-28T07:01:58;-0.10;94.60
68480;DHT22;55469;48.934;12.050;2023-02-28T07:04:23;-0.20;94.60
68480;DHT22;55469;48.934;12.050;2023-02-28T07:06:49;-0.20;94.60
68480;DHT22;55469;48.934;12.050;2023-02-28T07:09:15;-0.10;94.60
68480;DHT22;55469;48.934;12.050;2023-02-28T07:11:41;-0.20;94.60
68480;DHT22;55469;48.934;12.050;2023-02-28T07:14:08;-0.20;94.50
68480;DHT22;55469;48.934;12.050;2023-02-28T07:16:35;-0.10;94.50
68480;DHT22;55469;48.934;12.050;2023-02-28T07:19:00;-0.10;94.50
68480;DHT22;55469;48.934;12.050;2023-02-28T07:21:26;-0.10;94.50
68480;DHT22;55469;48.934;12.050;2023-02-28T07:23:52;-0.10;94.30
68480;DHT22;55469;48.934;12.050;2023-02-28T07:26:19;-0.10;94.40
68480;DHT22;55469;48.934;12.050;2023-02-28T07:28:46;-0.10;94.40
68480;DHT22;55469;48.934;12.050;2023-02-28T07:31:13;-0.10;94.40
68480;DHT22;55469;48.934;12.050;2023-02-28T07:33:40;0.00;94.30
68480;DHT22;55469;48.934;12.050;2023-02-28T07:36:10;0.00;94.20
68480;DHT22;55469;48.934;12.050;2023-02-28T07:38:41;0.00;94.30
68480;DHT22;55469;48.934;12.050;2023-02-28T07:41:09;0.00;94.20
68480;DHT22;55469;48.934;12.050;2023-02-28T07:43:35;0.00;94.20
68480;DHT22;55469;48.934;12.050;2023-02-28T07:46:06;0.00;94.20
68480;DHT22;55469;48.934;12.050;2023-02-28T07:48:33;0.00;94.20
68480;DHT22;55469;48.934;12.050;2023-02-28T07:50:59;0.00;94.10
68480;DHT22;55469;48.934;12.050;2023-02-28T07:53:27;0.00;94.00
68480;DHT22;55469;48.934;12.050;2023-02-28T07:55:57;0.10;94.00
68480;DHT22;55469;48.934;12.050;2023-02-28T07:58:25;0.10;94.00
68480;DHT22;55469;48.934;12.050;2023-02-28T08:00:51;0.10;93.90
68480;DHT22;55469;48.934;12.050;2023-02-28T08:03:18;0.10;93.80
68480;DHT22;55469;48.934;12.050;2023-02-28T08:05:45;0.10;93.80
68480;DHT22;55469;48.934;12.050;2023-02-28T08:08:11;0.20;93.80
68480;DHT22;55469;48.934;12.050;2023-02-28T08:10:36;0.20;93.70
68480;DHT22;55469;48.934;12.050;2023-02-28T08:13:02;0.20;93.70
68480;DHT22;55469;48.934;12.050;2023-02-28T08:15:28;0.20;93.50
68480;DHT22;55469;48.934;12.050;2023-02-28T08:17:54;0.30;93.50
68480;DHT22;55469;48.934;12.050;2023-02-28T08:20:22;0.30;93.50
68480;DHT22;55469;48.934;12.050;2023-02-28T08:22:48;0.30;93.50
68480;DHT22;55469;48.934;12.050;2023-02-28T08:25:15;0.30;93.50
68480;DHT22;55469;48.934;12.050;2023-02-28T08:27:41;0.30;93.40
68480;DHT22;55469;48.934;12.050;2023-02-28T08:30:09;0.40;93.40
68480;DHT22;55469;48.934;12.050;2023-02-28T08:32:36;0.30;93.40
68480;DHT22;55469;48.934;12.050;2023-02-28T08:35:02;0.40;93.50
68480;DHT22;55469;48.934;12.050;2023-02-28T08:37:28;0.40;93.40
68480;DHT22;55469;48.934;12.050;2023-02-28T08:39:54;0.40;93.50
68480;DHT22;55469;48.934;12.050;2023-02-28T08:42:20;0.40;93.40
68480;DHT22;55469;48.934;12.050;2023-02-28T08:44:46;0.30;93.70
68480;DHT22;55469;48.934;12.050;2023-02-28T08:47:12;0.40;93.70
68480;DHT22;55469;48.934;12.050;2023-02-28T08:49:38;0.40;93.60
68480;DHT22;55469;48.934;12.050;2023-02-28T08:52:03;0.40;93.60
68480;DHT22;55469;48.934;12.050;2023-02-28T08:54:29;0.40;93.40
68480;DHT22;55469;48.934;12.050;2023-02-28T08:56:56;0.50;93.50
68480;DHT22;55469;48.934;12.050;2023-02-28T08:59:22;0.50;93.60
68480;DHT22;55469;48.934;12.050;2023-02-28T09:01:48;0.50;93.60
68480;DHT22;55469;48.934;12.050;2023-02-28T09:04:17;0.50;93.30
68480;DHT22;55469;48.934;12.050;2023-02-28T09:06:42;0.50;93.40
68480;DHT22;55469;48.934;12.050;2023-02-28T09:09:09;0.50;93.30
68480;DHT22;55469;48.934;12.050;2023-02-28T09:11:35;0.50;93.30
68480;DHT22;55469;48.934;12.050;2023-02-28T09:14:02;0.60;93.40
68480;DHT22;55469;48.934;12.050;2023-02-28T09:16:29;0.60;93.30
68480;DHT22;55469;48.934;12.050;2023-02-28T09:18:56;0.60;93.10
68480;DHT22;55469;48.934;12.050;2023-02-28T09:21:22;0.60;93.20
68480;DHT22;55469;48.934;12.050;2023-02-28T09:23:50;0.60;93.30
68480;DHT22;55469;48.934;12.050;2023-02-28T09:26:21;0.70;93.20
68480;DHT22;55469;48.934;12.050;2023-02-28T09:28:51;0.70;93.00
68480;DHT22;55469;48.934;12.050;2023-02-28T09:31:21;0.70;93.10
68480;DHT22;55469;48.934;12.050;2023-02-28T09:33:49;0.70;93.10
68480;DHT22;55469;48.934;12.050;2023-02-28T09:36:16;0.70;93.20
68480;DHT22;55469;48.934;12.050;2023-02-28T09:38:42;0.70;93.10
68480;DHT22;55469;48.934;12.050;2023-02-28T09:41:23;0.80;93.00
68480;DHT22;55469;48.934;12.050;2023-02-28T09:43:55;0.80;93.10
68480;DHT22;55469;48.934;12.050;2023-02-28T09:46:32;0.80;93.00
68480;DHT22;55469;48.934;12.050;2023-02-28T09:49:02;0.80;92.90
68480;DHT22;55469;48.934;12.050;2023-02-28T09:54:22;0.90;93.00
68480;DHT22;55469;48.934;12.050;2023-02-28T09:56:53;0.90;93.10
68480;DHT22;55469;48.934;12.050;2023-02-28T10:04:58;1.00;92.80
68480;DHT22;55469;48.934;12.050;2023-02-28T10:10:48;1.10;92.90
68480;DHT22;55469;48.934;12.050;2023-02-28T10:13:20;1.10;92.90
68480;DHT22;55469;48.934;12.050;2023-02-28T10:15:54;1.10;92.80
68480;DHT22;55469;48.934;12.050;2023-02-28T10:18:26;1.20;92.80
68480;DHT22;55469;48.934;12.050;2023-02-28T10:20:55;1.30;92.80
68480;DHT22;55469;48.934;12.050;2023-02-28T10:26:16;1.40;92.60
68480;DHT22;55469;48.934;12.050;2023-02-28T10:28:43;1.40;92.60
68480;DHT22;55469;48.934;12.050;2023-02-28T10:31:16;1.40;92.60
68480;DHT22;55469;48.934;12.050;2023-02-28T10:33:43;1.50;92.50
68480;DHT22;55469;48.934;12.050;2023-02-28T10:36:15;1.50;92.40
68480;DHT22;55469;48.934;12.050;2023-02-28T10:38:42;1.50;92.40
68480;DHT22;55469;48.934;12.050;2023-02-28T10:41:11;1.60;92.30
68480;DHT22;55469;48.934;12.050;2023-02-28T10:43:43;1.60;92.40
68480;DHT22;55469;48.934;12.050;2023-02-28T10:48:43;1.70;92.30
68480;DHT22;55469;48.934;12.050;2023-02-28T10:51:16;1.70;92.30
68480;DHT22;55469;48.934;12.050;2023-02-28T10:53:54;1.70;92.20
68480;DHT22;55469;48.934;12.050;2023-02-28T10:56:22;1.70;92.20
68480;DHT22;55469;48.934;12.050;2023-02-28T10:58:55;1.80;92.20
68480;DHT22;55469;48.934;12.050;2023-02-28T11:01:44;1.80;92.30
68480;DHT22;55469;48.934;12.050;2023-02-28T11:07:11;1.90;92.10
68480;DHT22;55469;48.934;12.050;2023-02-28T11:09:46;1.90;92.10
68480;DHT22;55469;48.934;12.050;2023-02-28T11:14:52;2.00;92.00
68480;DHT22;55469;48.934;12.050;2023-02-28T11:17:24;2.00;92.00
68480;DHT22;55469;48.934;12.050;2023-02-28T11:20:06;2.00;92.00
68480;DHT22;55469;48.934;12.050;2023-02-28T11:22:39;2.10;91.90
68480;DHT22;55469;48.934;12.050;2023-02-28T11:25:38;2.00;91.90
68480;DHT22;55469;48.934;12.050;2023-02-28T11:28:06;2.10;91.80
68480;DHT22;55469;48.934;12.050;2023-02-28T11:33:53;2.20;91.90
68480;DHT22;55469;48.934;12.050;2023-02-28T11:36:27;2.20;91.80
68480;DHT22;55469;48.934;12.050;2023-02-28T11:38:58;2.30;91.70
68480;DHT22;55469;48.934;12.050;2023-02-28T11:50:21;2.40;91.70
68480;DHT22;55469;48.934;12.050;2023-02-28T11:53:17;2.40;91.60
68480;DHT22;55469;48.934;12.050;2023-02-28T11:56:20;2.40;91.60
68480;DHT22;55469;48.934;12.050;2023-02-28T12:10:27;2.60;92.00
68480;DHT22;55469;48.934;12.050;2023-02-28T12:13:10;2.60;91.50
68480;DHT22;55469;48.934;12.050;2023-02-28T12:16:08;2.60;91.40
68480;DHT22;55469;48.934;12.050;2023-02-28T12:19:05;2.60;91.40
68480;DHT22;55469;48.934;12.050;2023-02-28T12:24:47;2.60;91.50
68480;DHT22;55469;48.934;12.050;2023-02-28T12:27:27;2.60;91.60
68480;DHT22;55469;48.934;12.050;2023-02-28T12:30:08;2.60;91.60
68480;DHT22;55469;48.934;12.050;2023-02-28T12:32:54;2.60;91.70
68480;DHT22;55469;48.934;12.050;2023-02-28T12:35:26;2.60;91.70
68480;DHT22;55469;48.934;12.050;2023-02-28T12:38:14;2.60;91.80
68480;DHT22;55469;48.934;12.050;2023-02-28T12:40:49;2.60;91.80
68480;DHT22;55469;48.934;12.050;2023-02-28T12:43:19;2.60;91.80
68480;DHT22;55469;48.934;12.050;2023-02-28T12:45:50;2.60;91.80
68480;DHT22;55469;48.934;12.050;2023-02-28T12:48:47;2.60;91.90
68480;DHT22;55469;48.934;12.050;2023-02-28T12:51:31;2.60;91.90
68480;DHT22;55469;48.934;12.050;2023-02-28T12:57:09;2.60;91.90
68480;DHT22;55469;48.934;12.050;2023-02-28T12:59:45;2.60;91.90
68480;DHT22;55469;48.934;12.050;2023-02-28T13:10:21;2.70;92.00
68480;DHT22;55469;48.934;12.050;2023-02-28T13:12:54;2.70;92.00
68480;DHT22;55469;48.934;12.050;2023-02-28T13:15:27;2.70;92.00
68480;DHT22;55469;48.934;12.050;2023-02-28T13:18:00;2.70;92.10
68480;DHT22;55469;48.934;12.050;2023-02-28T13:20:37;2.70;92.10
68480;DHT22;55469;48.934;12.050;2023-02-28T13:26:11;2.70;92.10
68480;DHT22;55469;48.934;12.050;2023-02-28T13:29:39;2.70;92.10
68480;DHT22;55469;48.934;12.050;2023-02-28T13:34:35;2.80;92.20
68480;DHT22;55469;48.934;12.050;2023-02-28T13:42:32;2.80;92.20
68480;DHT22;55469;48.934;12.050;2023-02-28T13:50:34;2.80;92.10
68480;DHT22;55469;48.934;12.050;2023-02-28T13:58:53;2.90;92.00
68480;DHT22;55469;48.934;12.050;2023-02-28T14:05:17;2.80;91.90
68480;DHT22;55469;48.934;12.050;2023-02-28T14:07:50;2.90;91.80
68480;DHT22;55469;48.934;12.050;2023-02-28T14:10:25;2.90;92.00
68480;DHT22;55469;48.934;12.050;2023-02-28T14:12:59;2.90;92.00
68480;DHT22;55469;48.934;12.050;2023-02-28T14:37:56;3.00;91.90
68480;DHT22;55469;48.934;12.050;2023-02-28T14:40:30;3.00;91.80
68480;DHT22;55469;48.934;12.050;2023-02-28T14:43:03;3.00;91.80
68480;DHT22;55469;48.934;12.050;2023-02-28T14:45:32;3.00;91.90
68480;DHT22;55469;48.934;12.050;2023-02-28T14:48:00;3.00;91.80
68480;DHT22;55469;48.934;12.050;2023-02-28T14:50:34;3.00;91.90
68480;DHT22;55469;48.934;12.050;2023-02-28T14:53:02;3.00;91.80
68480;DHT22;55469;48.934;12.050;2023-02-28T14:55:34;3.00;92.00
68480;DHT22;55469;48.934;12.050;2023-02-28T14:58:23;3.10;92.00
68480;DHT22;55469;48.934;12.050;2023-02-28T15:00:54;3.00;91.90
68480;DHT22;55469;48.934;12.050;2023-02-28T15:03:31;3.00;92.00
68480;DHT22;55469;48.934;12.050;2023-02-28T15:06:00;3.10;91.90
68480;DHT22;55469;48.934;12.050;2023-02-28T15:08:27;3.00;91.90
68480;DHT22;55469;48.934;12.050;2023-02-28T15:10:58;3.00;92.00
68480;DHT22;55469;48.934;12.050;2023-02-28T15:13:39;3.10;91.90
68480;DHT22;55469;48.934;12.050;2023-02-28T15:16:17;3.10;91.90
68480;DHT22;55469;48.934;12.050;2023-02-28T15:18:59;3.10;92.00
68480;DHT22;55469;48.934;12.050;2023-02-28T15:21:30;3.10;91.90
68480;DHT22;55469;48.934;12.050;2023-02-28T15:24:04;3.10;91.90
68480;DHT22;55469;48.934;12.050;2023-02-28T15:26:40;3.10;91.90
68480;DHT22;55469;48.934;12.050;2023-02-28T15:29:19;3.10;91.80
68480;DHT22;55469;48.934;12.050;2023-02-28T15:31:55;3.10;91.80
68480;DHT22;55469;48.934;12.050;2023-02-28T15:34:38;3.10;91.90
68480;DHT22;55469;48.934;12.050;2023-02-28T15:37:45;3.20;91.80
68480;DHT22;55469;48.934;12.050;2023-02-28T15:45:55;3.10;91.90
68480;DHT22;55469;48.934;12.050;2023-02-28T15:48:22;3.20;92.00
68480;DHT22;55469;48.934;12.050;2023-02-28T15:51:08;3.20;92.00
68480;DHT22;55469;48.934;12.050;2023-02-28T15:53:45;3.20;91.90
68480;DHT22;55469;48.934;12.050;2023-02-28T15:56:33;3.10;92.00
68480;DHT22;55469;48.934;12.050;2023-02-28T15:59:04;3.10;92.00
68480;DHT22;55469;48.934;12.050;2023-02-28T16:01:36;3.10;92.00
68480;DHT22;55469;48.934;12.050;2023-02-28T16:04:17;3.10;92.10
68480;DHT22;55469;48.934;12.050;2023-02-28T16:07:22;3.10;92.10
68480;DHT22;55469;48.934;12.050;2023-02-28T16:09:46;3.20;92.10
68480;DHT22;55469;48.934;12.050;2023-02-28T16:12:13;3.10;92.10
68480;DHT22;55469;48.934;12.050;2023-02-28T16:14:39;3.10;92.10
68480;DHT22;55469;48.934;12.050;2023-02-28T16:17:22;3.10;92.20
68480;DHT22;55469;48.934;12.050;2023-02-28T16:19:49;3.10;92.10
68480;DHT22;55469;48.934;12.050;2023-02-28T16:22:15;3.10;92.10
68480;DHT22;55469;48.934;12.050;2023-02-28T16:24:41;3.10;92.20
68480;DHT22;55469;48.934;12.050;2023-02-28T16:27:09;3.20;92.20
68480;DHT22;55469;48.934;12.050;2023-02-28T16:29:42;3.10;92.30
68480;DHT22;55469;48.934;12.050;2023-02-28T16:32:07;3.10;92.30
68480;DHT22;55469;48.934;12.050;2023-02-28T16:34:35;3.10;92.30
68480;DHT22;55469;48.934;12.050;2023-02-28T16:37:01;3.10;92.30
68480;DHT22;55469;48.934;12.050;2023-02-28T16:39:26;3.10;92.40
68480;DHT22;55469;48.934;12.050;2023-02-28T16:41:52;3.10;92.30
68480;DHT22;55469;48.934;12.050;2023-02-28T16:44:33;3.10;92.40
68480;DHT22;55469;48.934;12.050;2023-02-28T16:47:02;3.10;92.30
68480;DHT22;55469;48.934;12.050;2023-02-28T16:49:29;3.10;92.40
68480;DHT22;55469;48.934;12.050;2023-02-28T16:51:55;3.10;92.60
68480;DHT22;55469;48.934;12.050;2023-02-28T16:54:20;3.10;92.50
68480;DHT22;55469;48.934;12.050;2023-02-28T16:56:47;3.00;92.40
68480;DHT22;55469;48.934;12.050;2023-02-28T16:59:17;3.10;92.50
68480;DHT22;55469;48.934;12.050;2023-02-28T17:01:45;3.10;92.60
68480;DHT22;55469;48.934;12.050;2023-02-28T17:04:11;3.10;92.50
68480;DHT22;55469;48.934;12.050;2023-02-28T17:06:37;3.10;92.50
68480;DHT22;55469;48.934;12.050;2023-02-28T17:09:03;3.00;92.60
68480;DHT22;55469;48.934;12.050;2023-02-28T17:11:29;3.00;92.60
68480;DHT22;55469;48.934;12.050;2023-02-28T17:13:55;3.00;92.60
68480;DHT22;55469;48.934;12.050;2023-02-28T17:16:35;3.10;92.60
68480;DHT22;55469;48.934;12.050;2023-02-28T17:19:03;3.00;92.70
68480;DHT22;55469;48.934;12.050;2023-02-28T17:21:31;3.00;92.60
68480;DHT22;55469;48.934;12.050;2023-02-28T17:23:58;3.10;92.80
68480;DHT22;55469;48.934;12.050;2023-02-28T17:26:25;3.10;92.70
68480;DHT22;55469;48.934;12.050;2023-02-28T17:28:56;3.10;92.80
68480;DHT22;55469;48.934;12.050;2023-02-28T17:31:26;3.00;92.70
68480;DHT22;55469;48.934;12.050;2023-02-28T17:33:52;3.10;92.60
68480;DHT22;55469;48.934;12.050;2023-02-28T17:36:24;3.00;92.70
68480;DHT22;55469;48.934;12.050;2023-02-28T17:38:52;3.10;92.70
68480;DHT22;55469;48.934;12.050;2023-02-28T17:41:20;3.00;92.70
68480;DHT22;55469;48.934;12.050;2023-02-28T17:43:46;3.10;92.70
68480;DHT22;55469;48.934;12.050;2023-02-28T17:46:18;3.10;92.70
68480;DHT22;55469;48.934;12.050;2023-02-28T17:48:47;3.10;92.70
68480;DHT22;55469;48.934;12.050;2023-02-28T17:51:17;3.00;92.70
68480;DHT22;55469;48.934;12.050;2023-02-28T17:53:43;3.00;92.70
68480;DHT22;55469;48.934;12.050;2023-02-28T17:56:15;3.10;92.70
68480;DHT22;55469;48.934;12.050;2023-02-28T17:58:43;3.10;92.70
68480;DHT22;55469;48.934;12.050;2023-02-28T18:01:09;3.10;92.80
68480;DHT22;55469;48.934;12.050;2023-02-28T18:03:36;3.10;93.20
68480;DHT22;55469;48.934;12.050;2023-02-28T18:06:02;3.10;92.80
68480;DHT22;55469;48.934;12.050;2023-02-28T18:08:28;3.00;92.80
68480;DHT22;55469;48.934;12.050;2023-02-28T18:10:54;3.00;92.70
68480;DHT22;55469;48.934;12.050;2023-02-28T18:13:19;3.10;92.80
68480;DHT22;55469;48.934;12.050;2023-02-28T18:15:45;3.10;92.90